Time;durP1;ratioP1;P1;durP2;ratioP2;P2;SDS_P1;SDS_P2;PMS_P1;PMS_P2;Temp;Humidity;BMP_temperature;BMP_pressure;BME280_temperature;BME280_humidity;BME280_pressure;Samples;Min_cycle;Max_cycle;Signal;HPM_P1;HPM_P2
2021/01/26 00:01:56;;;;;;;3.25;0.80;;;;;;;8.39;38.86;93218.66;4134101;28;20423;-84
2021/01/26 00:03:58;;;;;;;4.43;0.98;;;;;;;8.45;37.92;93217.13;4134996;28;20399;-83
2021/01/26 00:05:59;;;;;;;1.80;0.80;;;;;;;8.44;38.42;93229.38;4135550;28;20058;-83
2021/01/26 00:08:00;;;;;;;1.17;0.70;;;;;;;8.46;38.23;93206.50;4133206;28;20085;-83
2021/01/26 00:10:03;;;;;;;2.60;1.33;;;;;;;8.42;38.30;93209.66;4133717;28;20136;-84
2021/01/26 00:12:05;;;;;;;2.13;0.75;;;;;;;8.43;38.31;93204.25;4117393;28;20479;-83
2021/01/26 00:14:07;;;;;;;3.10;1.02;;;;;;;8.42;38.17;93207.88;4117255;28;20050;-83
2021/01/26 00:16:08;;;;;;;4.45;1.60;;;;;;;8.43;38.78;93206.06;4131299;28;20512;-85
2021/01/26 00:18:09;;;;;;;2.80;1.00;;;;;;;8.40;38.50;93194.16;4122710;28;20129;-84
2021/01/26 00:20:12;;;;;;;2.30;1.20;;;;;;;8.42;38.18;93197.44;4133979;28;20060;-85
2021/01/26 00:22:13;;;;;;;1.63;0.85;;;;;;;8.39;38.61;93185.53;4116213;28;20058;-83
2021/01/26 00:24:15;;;;;;;3.25;0.98;;;;;;;8.39;38.50;93161.25;4131342;28;20511;-84
2021/01/26 00:26:18;;;;;;;2.35;0.60;;;;;;;8.47;38.23;93184.63;4135040;28;20113;-84
2021/01/26 00:28:19;;;;;;;2.33;1.00;;;;;;;8.44;39.19;93190.22;4134574;28;20443;-84
2021/01/26 00:30:25;;;;;;;2.63;1.00;;;;;;;8.45;38.79;93191.81;4127187;28;20054;-85
2021/01/26 00:32:26;;;;;;;2.60;1.00;;;;;;;8.41;39.00;93195.81;4143154;28;20096;-84
2021/01/26 00:34:28;;;;;;;2.53;1.10;;;;;;;8.46;38.51;93177.00;4137047;28;20085;-83
2021/01/26 00:36:29;;;;;;;2.35;0.80;;;;;;;8.44;39.05;93174.56;4134129;28;20112;-82
2021/01/26 00:38:31;;;;;;;1.52;0.88;;;;;;;8.39;39.21;93164.66;4133962;28;20061;-83
2021/01/26 00:40:32;;;;;;;1.40;0.70;;;;;;;8.47;39.08;93178.59;4142039;28;20050;-84
2021/01/26 00:42:33;;;;;;;2.03;0.70;;;;;;;8.45;39.42;93176.16;4133865;28;20058;-83
2021/01/26 00:44:35;;;;;;;3.50;0.70;;;;;;;8.42;39.25;93166.09;4132820;28;20473;-83
2021/01/26 00:46:36;;;;;;;1.63;0.68;;;;;;;8.45;39.05;93175.38;4131717;28;20052;-84
2021/01/26 00:48:37;;;;;;;1.95;0.80;;;;;;;8.46;39.22;93156.13;4134635;28;20113;-82
2021/01/26 00:50:39;;;;;;;1.73;0.80;;;;;;;8.46;38.93;93164.75;4137194;28;20061;-84
2021/01/26 00:52:40;;;;;;;3.95;0.90;;;;;;;8.52;39.30;93158.81;4133791;28;20056;-81
2021/01/26 00:54:41;;;;;;;2.60;0.85;;;;;;;8.47;39.74;93149.91;4133394;28;20046;-85
2021/01/26 00:56:42;;;;;;;3.28;1.20;;;;;;;8.45;39.77;93160.50;4133857;28;20129;-83
2021/01/26 00:58:44;;;;;;;3.40;1.17;;;;;;;8.44;39.79;93164.13;4133269;28;20054;-84
2021/01/26 01:00:45;;;;;;;2.13;0.98;;;;;;;8.44;39.82;93158.91;4119280;28;20392;-71
2021/01/26 01:02:46;;;;;;;2.22;0.88;;;;;;;8.47;39.81;93161.13;4115307;28;20451;-72
2021/01/26 01:04:48;;;;;;;2.28;1.15;;;;;;;8.49;39.38;93161.75;4128327;28;20038;-70
2021/01/26 01:06:49;;;;;;;2.67;0.80;;;;;;;8.54;39.83;93156.81;4138959;28;20065;-71
2021/01/26 01:08:50;;;;;;;1.85;0.73;;;;;;;8.51;39.66;93146.72;4124398;28;20411;-71
2021/01/26 01:10:52;;;;;;;2.90;0.85;;;;;;;8.52;39.54;93158.81;4122594;28;20435;-70
2021/01/26 01:12:54;;;;;;;1.35;0.63;;;;;;;8.54;39.70;93142.94;4123167;28;20050;-70
2021/01/26 01:14:55;;;;;;;2.90;0.80;;;;;;;8.52;40.09;93129.28;4124993;28;20050;-71
2021/01/26 01:16:56;;;;;;;2.45;0.88;;;;;;;8.53;40.00;93143.94;4119000;28;20119;-70
2021/01/26 01:18:57;;;;;;;3.15;0.90;;;;;;;8.52;39.94;93137.94;4120192;28;20074;-70
2021/01/26 01:20:58;;;;;;;2.65;1.20;;;;;;;8.58;39.47;93152.84;4137413;28;20462;-71
2021/01/26 01:23:00;;;;;;;2.08;0.70;;;;;;;8.56;40.25;93130.50;4137603;28;20054;-70
2021/01/26 01:25:02;;;;;;;2.55;1.23;;;;;;;8.59;40.24;93135.38;4124291;28;20053;-70
2021/01/26 01:27:03;;;;;;;2.35;1.05;;;;;;;8.57;40.23;93132.94;4135917;28;20054;-70
2021/01/26 01:29:05;;;;;;;1.92;0.80;;;;;;;8.60;40.19;93144.81;4130325;28;20061;-71
2021/01/26 01:31:06;;;;;;;3.33;0.90;;;;;;;8.53;40.33;93151.78;4125485;28;20501;-71
2021/01/26 01:33:07;;;;;;;2.75;0.90;;;;;;;8.57;39.84;93104.22;4130665;28;20112;-70
2021/01/26 01:35:09;;;;;;;2.80;0.70;;;;;;;8.61;40.10;93151.66;4112939;28;20055;-70
2021/01/26 01:37:11;;;;;;;2.53;0.85;;;;;;;8.59;40.96;93156.25;4120661;28;20133;-71
2021/01/26 01:39:12;;;;;;;1.80;0.60;;;;;;;8.55;40.39;93153.19;4115986;28;20493;-70
2021/01/26 01:41:14;;;;;;;2.85;0.70;;;;;;;8.51;40.24;93146.72;4125861;28;20050;-69
2021/01/26 01:43:15;;;;;;;1.65;0.80;;;;;;;8.56;40.58;93135.72;4119385;28;20419;-70
2021/01/26 01:45:18;;;;;;;4.55;0.90;;;;;;;8.53;40.67;93149.97;4124213;28;20053;-70
2021/01/26 01:47:28;;;;;;;2.40;0.80;;;;;;;8.53;41.41;93134.31;4118626;28;20141;-84
2021/01/26 01:49:35;;;;;;;1.40;0.80;;;;;;;8.51;40.98;93131.06;4132045;28;20088;-82
2021/01/26 01:51:39;;;;;;;1.73;0.73;;;;;;;8.51;41.10;93132.88;4132856;28;20126;-82
2021/01/26 01:53:44;;;;;;;3.63;1.08;;;;;;;8.50;41.63;93119.03;4131939;28;20072;-84
2021/01/26 01:56:03;;;;;;;1.67;0.80;;;;;;;8.49;41.30;93103.56;4131309;28;20503;-85
2021/01/26 01:58:13;;;;;;;2.10;0.88;;;;;;;8.50;41.96;93105.19;4132115;28;20046;-85
2021/01/26 02:00:16;;;;;;;2.40;0.80;;;;;;;8.50;42.17;93126.06;4133514;28;20541;-84
2021/01/26 02:02:17;;;;;;;2.47;1.15;;;;;;;8.54;41.32;93106.41;4129434;28;20046;-85
2021/01/26 02:04:21;;;;;;;1.48;0.57;;;;;;;8.59;41.98;93099.63;4124820;28;20047;-82
2021/01/26 02:06:23;;;;;;;;;;;;;;;8.60;41.80;93100.44;4116496;28;20516;-83
2021/01/26 02:08:43;;;;;;;3.25;1.05;;;;;;;8.51;41.82;93091.94;4134412;28;19926;-83
2021/01/26 02:10:44;;;;;;;2.85;0.80;;;;;;;8.54;42.04;93081.13;4131909;28;20071;-83
2021/01/26 02:12:46;;;;;;;2.50;0.88;;;;;;;8.58;42.20;93091.97;4132988;28;20161;-84
2021/01/26 02:14:53;;;;;;;2.58;0.70;;;;;;;8.57;41.94;93083.34;4133270;28;20138;-84
2021/01/26 02:16:55;;;;;;;2.03;0.63;;;;;;;8.61;42.60;93086.41;4115519;28;20050;-83
2021/01/26 02:18:56;;;;;;;1.92;0.82;;;;;;;8.64;41.96;93082.63;4125637;28;20103;-82
2021/01/26 02:21:22;;;;;;;3.22;0.98;;;;;;;8.60;42.31;93085.63;4144925;28;20050;-83
2021/01/26 02:23:46;;;;;;;2.58;0.68;;;;;;;8.64;42.21;93090.44;4117176;28;20085;-83
2021/01/26 02:25:59;;;;;;;2.28;0.90;;;;;;;8.70;42.74;93082.66;4126580;28;20045;-81
2021/01/26 02:28:25;;;;;;;2.43;0.77;;;;;;;8.72;42.75;93085.91;4139589;28;20061;-80
2021/01/26 02:30:50;;;;;;;1.48;0.60;;;;;;;8.65;42.77;93097.28;4117350;28;20274;-84
2021/01/26 02:33:35;;;;;;;1.77;0.90;;;;;;;8.68;42.54;93096.91;4128336;28;20050;-82
2021/01/26 02:35:51;;;;;;;2.00;0.68;;;;;;;8.66;43.32;93089.25;4125715;28;20058;-82
2021/01/26 02:38:28;;;;;;;2.03;0.70;;;;;;;8.71;43.00;93076.47;4112691;28;20133;-83
2021/01/26 02:40:32;;;;;;;2.58;0.63;;;;;;;8.72;42.91;93082.50;4062170;29;20533;-85
2021/01/26 02:42:36;;;;;;;;;;;;;;;8.68;42.86;93078.63;4132431;28;20064;-83
2021/01/26 02:44:51;;;;;;;2.00;0.80;;;;;;;8.66;42.90;93080.63;4136443;28;20016;-82
2021/01/26 02:47:02;;;;;;;2.33;0.80;;;;;;;8.69;43.25;93099.34;4114890;28;20285;-83
2021/01/26 02:49:09;;;;;;;4.82;0.77;;;;;;;8.70;43.29;93084.47;4131676;28;20589;-83
2021/01/26 02:51:30;;;;;;;4.13;0.80;;;;;;;8.69;42.82;93101.13;4134441;28;20057;-82
2021/01/26 02:53:37;;;;;;;4.15;0.90;;;;;;;8.68;43.52;93113.38;4115636;28;20491;-85
2021/01/26 02:55:58;;;;;;;1.85;0.68;;;;;;;8.71;43.40;93097.34;4130483;28;20055;-82
2021/01/26 02:58:08;;;;;;;2.33;0.73;;;;;;;8.73;43.15;93115.41;4137413;28;20054;-82
2021/01/26 03:00:16;;;;;;;2.80;0.82;;;;;;;8.74;43.29;93115.25;4141500;28;20080;-82
2021/01/26 03:02:40;;;;;;;3.15;0.77;;;;;;;8.73;43.36;93097.16;4141794;28;20081;-81
2021/01/26 03:04:46;;;;;;;;;;;;;;;8.74;43.62;93101.38;4129472;28;20058;-71
2021/01/26 03:06:51;;;;;;;3.92;0.90;;;;;;;8.71;43.59;93112.19;4122984;28;19929;-71
2021/01/26 03:09:31;;;;;;;2.38;0.70;;;;;;;8.73;43.59;93118.88;4119249;28;20058;-71
2021/01/26 03:11:40;;;;;;;1.58;0.52;;;;;;;8.80;43.30;93109.28;4094255;29;20066;-70
2021/01/26 03:13:48;;;;;;;3.75;0.90;;;;;;;8.78;43.87;93113.88;4108604;28;20053;-70
2021/01/26 03:15:58;;;;;;;3.60;1.30;;;;;;;8.64;43.29;93135.63;4102604;28;20047;-70
2021/01/26 03:18:04;;;;;;;1.83;0.88;;;;;;;8.61;43.59;93134.19;4123484;28;20053;-70
2021/01/26 03:20:26;;;;;;;2.42;0.70;;;;;;;8.63;43.38;93122.78;4129208;28;20121;-71
2021/01/26 03:22:27;;;;;;;2.92;0.98;;;;;;;8.71;43.38;93127.84;4122127;28;20086;-71
2021/01/26 03:24:40;;;;;;;3.08;0.73;;;;;;;8.80;43.62;93139.81;4125474;28;20054;-71
2021/01/26 03:26:41;;;;;;;3.78;1.00;;;;;;;8.67;43.44;93122.22;4125528;28;20069;-70
2021/01/26 03:28:44;;;;;;;2.30;0.80;;;;;;;8.63;43.51;93130.59;4109845;28;20047;-70
2021/01/26 03:30:48;;;;;;;2.00;0.77;;;;;;;8.60;43.58;93127.38;4116456;28;20657;-70
2021/01/26 03:32:52;;;;;;;4.97;0.70;;;;;;;8.70;43.04;93119.22;4135948;28;20463;-70
2021/01/26 03:34:54;;;;;;;2.42;0.80;;;;;;;8.74;43.34;93122.28;4130527;28;20579;-71
2021/01/26 03:36:55;;;;;;;3.17;0.80;;;;;;;8.76;43.58;93131.53;4140777;28;20053;-71
2021/01/26 03:38:57;;;;;;;2.55;0.80;;;;;;;8.77;43.43;93132.34;4131171;28;20154;-71
2021/01/26 03:41:02;;;;;;;2.25;0.80;;;;;;;8.80;43.87;93126.75;4138036;28;20530;-72
2021/01/26 03:43:03;;;;;;;2.47;0.60;;;;;;;8.85;43.45;93128.81;4122460;28;20050;-69
2021/01/26 03:45:07;;;;;;;3.22;0.90;;;;;;;8.85;43.55;93134.81;4123432;28;20137;-70
2021/01/26 03:47:28;;;;;;;3.35;0.73;;;;;;;8.79;43.77;93130.34;4130877;28;20054;-70
2021/01/26 03:49:52;;;;;;;2.72;0.80;;;;;;;8.79;44.10;93125.13;4132071;28;20451;-71
2021/01/26 03:52:00;;;;;;;2.08;0.80;;;;;;;8.80;43.93;93126.75;4121532;28;20129;-70
2021/01/26 03:54:14;;;;;;;1.20;0.65;;;;;;;8.76;44.00;93133.34;4128980;28;20050;-71
2021/01/26 03:56:51;;;;;;;3.75;0.90;;;;;;;8.79;43.82;93132.97;4117831;28;20531;-71
2021/01/26 03:59:13;;;;;;;1.67;0.80;;;;;;;8.75;44.24;93131.72;4081037;29;20082;-71
2021/01/26 04:01:27;;;;;;;2.88;0.80;;;;;;;8.76;43.66;93126.31;4115214;28;20137;-72
2021/01/26 04:03:59;;;;;;;3.42;0.90;;;;;;;8.84;43.85;93127.16;4114844;28;20590;-71
2021/01/26 04:06:10;;;;;;;2.42;0.73;;;;;;;8.87;44.27;93132.84;4128195;28;20593;-70
2021/01/26 04:08:16;;;;;;;1.55;0.70;;;;;;;8.89;44.04;93130.06;4129857;28;20050;-73
2021/01/26 04:10:30;;;;;;;3.10;0.90;;;;;;;8.92;43.93;93161.00;4123720;28;20062;-70
2021/01/26 04:12:32;;;;;;;;;;;;;;;8.84;43.69;93135.84;4114552;28;20498;-71
2021/01/26 04:14:39;;;;;;;2.00;1.00;;;;;;;8.87;44.32;93119.78;4129372;28;19921;-71
2021/01/26 04:16:49;;;;;;;3.40;1.05;;;;;;;8.85;44.43;93140.06;4126494;28;20472;-70
2021/01/26 04:18:52;;;;;;;4.03;1.58;;;;;;;8.51;44.26;93149.34;4122072;28;20517;-70
2021/01/26 04:20:54;;;;;;;2.78;1.40;;;;;;;8.12;44.81;93145.25;4124676;28;20171;-69
2021/01/26 04:22:57;;;;;;;3.75;1.77;;;;;;;7.45;46.65;93156.59;4129112;28;20050;-69
2021/01/26 04:24:58;;;;;;;4.38;2.15;;;;;;;7.23;47.18;93149.63;4127756;28;20574;-72
2021/01/26 04:27:02;;;;;;;4.82;2.22;;;;;;;6.69;48.51;93159.16;4120557;28;20062;-71
2021/01/26 04:29:03;;;;;;;7.35;2.70;;;;;;;6.54;49.78;93153.91;4124640;28;20064;-69
2021/01/26 04:31:06;;;;;;;7.45;2.70;;;;;;;6.52;49.53;93171.47;4129785;28;20057;-71
2021/01/26 04:33:14;;;;;;;5.25;2.42;;;;;;;6.36;50.36;93148.94;4129719;28;20066;-72
2021/01/26 04:35:15;;;;;;;6.28;2.63;;;;;;;6.33;50.39;93169.31;4117634;28;20050;-69
2021/01/26 04:37:16;;;;;;;7.05;2.40;;;;;;;6.20;50.98;93153.44;4140822;28;20046;-71
2021/01/26 04:39:18;;;;;;;5.38;1.98;;;;;;;6.36;51.33;93146.34;4129985;28;20058;-70
2021/01/26 04:41:22;;;;;;;5.85;2.22;;;;;;;6.39;51.41;93142.63;4123636;28;20480;-70
2021/01/26 04:43:36;;;;;;;5.82;2.47;;;;;;;6.24;52.13;93139.09;4127300;28;20401;-70
2021/01/26 04:45:59;;;;;;;7.00;2.22;;;;;;;6.22;52.60;93144.50;4125394;28;20046;-73
2021/01/26 04:48:12;;;;;;;4.72;2.22;;;;;;;6.13;53.69;93155.88;4131328;28;20058;-70
2021/01/26 04:50:37;;;;;;;8.85;2.75;;;;;;;5.93;54.46;93152.88;4129228;28;20301;-70
2021/01/26 04:53:16;;;;;;;6.65;2.60;;;;;;;5.94;55.59;93175.28;4129165;28;20528;-71
2021/01/26 04:55:47;;;;;;;8.93;4.53;;;;;;;5.88;56.40;93165.56;4119588;28;20508;-71
2021/01/26 04:58:09;;;;;;;9.10;3.15;;;;;;;5.67;58.25;93186.91;4119585;28;20057;-69
2021/01/26 05:00:38;;;;;;;7.65;3.47;;;;;;;5.21;60.56;93165.91;4129460;28;20054;-71
2021/01/26 05:02:48;;;;;;;6.28;2.83;;;;;;;5.20;61.33;93175.44;4128250;28;20415;-71
2021/01/26 05:05:10;;;;;;;10.32;2.78;;;;;;;5.09;61.81;93184.38;4130862;28;20046;-71
2021/01/26 05:07:21;;;;;;;7.82;3.22;;;;;;;5.00;62.04;93193.16;4126828;28;20574;-69
2021/01/26 05:09:29;;;;;;;6.20;3.30;;;;;;;4.74;64.02;93164.75;4127758;28;20216;-71
2021/01/26 05:11:32;;;;;;;6.40;3.10;;;;;;;4.82;63.76;93172.56;4132243;28;20117;-71
2021/01/26 05:13:40;;;;;;;7.28;3.38;;;;;;;5.04;63.64;93193.66;4107057;28;20058;-71
2021/01/26 05:15:44;;;;;;;7.32;3.20;;;;;;;5.01;63.99;93186.16;4123897;28;20415;-71
2021/01/26 05:17:50;;;;;;;5.57;3.10;;;;;;;4.97;63.44;93182.28;4124198;28;20049;-71
2021/01/26 05:20:03;;;;;;;4.93;3.58;;;;;;;4.97;64.49;93187.47;4116633;28;20050;-71
2021/01/26 05:22:37;;;;;;;5.47;2.90;;;;;;;4.99;64.18;93188.13;4112910;28;20129;-71
2021/01/26 05:24:43;;;;;;;5.03;2.78;;;;;;;4.87;64.52;93193.63;4116639;28;20135;-72
2021/01/26 05:26:44;;;;;;;3.90;2.30;;;;;;;4.83;64.63;93207.91;4128638;28;20050;-71
2021/01/26 05:28:46;;;;;;;7.97;2.50;;;;;;;4.79;65.84;93204.00;4130111;28;20042;-71
2021/01/26 05:31:05;;;;;;;6.85;2.25;;;;;;;4.68;66.49;93204.31;4129910;28;20050;-70
2021/01/26 05:33:11;;;;;;;5.30;2.47;;;;;;;4.81;65.58;93219.41;4129011;28;20480;-72
2021/01/26 05:35:14;;;;;;;3.90;2.17;;;;;;;4.79;66.21;93204.00;4131515;28;20096;-70
2021/01/26 05:37:15;;;;;;;4.32;2.20;;;;;;;4.82;65.74;93195.91;4131921;28;20062;-70
2021/01/26 05:39:22;;;;;;;4.78;2.20;;;;;;;4.60;67.31;93209.47;4127456;28;20054;-71
2021/01/26 05:41:24;;;;;;;3.60;1.70;;;;;;;4.58;67.59;93211.41;4113089;28;20105;-71
2021/01/26 05:43:31;;;;;;;5.43;1.98;;;;;;;4.56;67.47;93218.53;4114431;28;20105;-72
2021/01/26 05:45:38;;;;;;;4.75;1.98;;;;;;;4.71;67.26;93220.38;4125034;28;20558;-70
2021/01/26 05:47:39;;;;;;;6.10;2.33;;;;;;;4.82;66.54;93234.81;4128960;28;20069;-71
2021/01/26 05:49:40;;;;;;;4.20;2.33;;;;;;;4.84;67.23;93235.47;4129583;28;20054;-71
2021/01/26 05:51:43;;;;;;;5.15;2.20;;;;;;;4.90;66.57;93234.00;4130683;28;20105;-71
2021/01/26 05:53:51;;;;;;;4.55;2.90;;;;;;;4.62;67.81;93223.91;4128164;28;20092;-73
2021/01/26 05:56:11;;;;;;;5.35;2.95;;;;;;;4.61;68.31;93242.25;4128723;28;20069;-70
2021/01/26 05:58:14;;;;;;;7.43;3.30;;;;;;;4.68;67.93;93245.81;4128803;28;20459;-71
2021/01/26 06:00:27;;;;;;;7.13;3.20;;;;;;;4.78;68.21;93237.91;4128368;28;20502;-72
2021/01/26 06:02:28;;;;;;;7.47;4.30;;;;;;;4.87;67.83;93240.34;4099842;28;20051;-73
2021/01/26 06:04:33;;;;;;;7.15;3.10;;;;;;;4.86;68.22;93249.09;4128253;28;20354;-70
2021/01/26 06:06:50;;;;;;;6.95;2.80;;;;;;;4.45;69.72;93256.78;4125019;28;20050;-71
2021/01/26 06:08:54;;;;;;;5.40;2.50;;;;;;;4.63;69.26;93254.06;4123053;28;20047;-71
2021/01/26 06:10:55;;;;;;;3.75;2.17;;;;;;;4.58;69.87;93263.28;4126591;28;20310;-84
2021/01/26 06:12:57;;;;;;;4.30;2.15;;;;;;;4.72;69.53;93273.06;4139812;28;20109;-84
2021/01/26 06:14:58;;;;;;;5.88;3.03;;;;;;;4.66;69.34;93282.28;4132359;28;20411;-88
2021/01/26 06:17:09;;;;;;;6.47;3.58;;;;;;;4.39;71.44;93279.91;4135273;28;20495;-83
2021/01/26 06:19:14;;;;;;;5.50;3.58;;;;;;;4.21;71.93;93285.19;4134377;28;20122;-85
2021/01/26 06:21:16;;;;;;;6.57;3.38;;;;;;;4.44;71.28;93288.88;4135403;28;20109;-87
2021/01/26 06:23:19;;;;;;;7.30;3.30;;;;;;;4.57;70.62;93290.22;4130970;28;20097;-84
2021/01/26 06:25:30;;;;;;;8.45;3.17;;;;;;;4.78;69.81;93303.56;4137856;28;20046;-85
2021/01/26 06:27:46;;;;;;;4.88;2.63;;;;;;;4.89;70.13;93311.06;4127795;28;20054;-86
2021/01/26 06:30:09;;;;;;;5.63;2.08;;;;;;;4.86;70.21;93315.72;4126379;28;20113;-86
2021/01/26 06:32:22;;;;;;;5.55;2.47;;;;;;;4.87;70.25;93348.50;4135051;28;20058;-87
2021/01/26 06:34:32;;;;;;;4.65;2.13;;;;;;;4.75;71.39;93331.59;4134348;28;20439;-87
2021/01/26 06:36:36;;;;;;;6.57;2.08;;;;;;;4.77;70.46;93348.63;4131669;28;20074;-85
2021/01/26 06:38:53;;;;;;;;;;;;;;;4.80;70.69;93350.13;4117485;28;20145;-87
2021/01/26 06:41:09;;;;;;;3.60;2.00;;;;;;;4.71;71.37;93357.03;4124336;28;19925;-84
2021/01/26 06:43:28;;;;;;;3.40;1.90;;;;;;;4.61;72.12;93354.56;4131614;28;20136;-84
2021/01/26 06:45:47;;;;;;;3.50;1.80;;;;;;;4.08;74.69;93360.78;4131778;28;20133;-83
2021/01/26 06:48:00;;;;;;;4.03;2.72;;;;;;;3.87;75.92;93366.31;4119439;28;20443;-84
2021/01/26 06:50:05;;;;;;;3.65;2.17;;;;;;;3.86;75.93;93370.69;4132563;28;20058;-87
2021/01/26 06:52:09;;;;;;;3.22;2.05;;;;;;;3.88;76.69;93378.31;4132906;28;20101;-86
2021/01/26 06:54:13;;;;;;;5.03;3.40;;;;;;;4.13;75.35;93376.72;4117676;28;20061;-86
2021/01/26 06:56:45;;;;;;;8.30;4.43;;;;;;;3.98;76.03;93383.38;4128760;28;20047;-86
2021/01/26 06:58:53;;;;;;;6.18;3.90;;;;;;;4.11;76.07;93394.19;4128084;28;20050;-86
2021/01/26 07:01:15;;;;;;;9.13;4.75;;;;;;;4.06;76.96;93397.19;4133225;28;20062;-86
2021/01/26 07:03:48;;;;;;;4.63;3.13;;;;;;;4.13;76.20;93396.59;4137660;28;20077;-86
2021/01/26 07:06:26;;;;;;;7.00;3.75;;;;;;;4.24;75.92;93393.78;4132890;28;20124;-85
2021/01/26 07:08:30;;;;;;;4.85;2.97;;;;;;;4.37;75.44;93404.56;4122484;28;20098;-87
2021/01/26 07:10:56;;;;;;;5.50;3.15;;;;;;;4.53;75.14;93408.19;4132427;28;20064;-84
2021/01/26 07:13:07;;;;;;;5.00;3.22;;;;;;;4.45;75.68;93414.97;4132123;28;20043;-85
2021/01/26 07:15:45;;;;;;;4.97;2.95;;;;;;;4.31;76.02;93438.84;4132696;28;20066;-85
2021/01/26 07:17:59;;;;;;;4.65;2.65;;;;;;;3.27;78.09;93447.19;4146780;28;20100;-87
2021/01/26 07:20:08;;;;;;;4.40;2.55;;;;;;;2.53;79.23;93450.66;4131752;28;20060;-86
2021/01/26 07:22:21;;;;;;;6.93;3.58;;;;;;;2.28;81.88;93460.66;4131930;28;20072;-85
2021/01/26 07:24:28;;;;;;;4.82;3.45;;;;;;;2.13;82.38;93462.88;4145909;28;20060;-86
2021/01/26 07:27:03;;;;;;;4.25;2.60;;;;;;;1.70;82.72;93465.88;4134240;28;20073;-84
2021/01/26 07:29:20;;;;;;;5.00;3.10;;;;;;;1.75;83.37;93477.44;4134112;28;20062;-85
2021/01/26 07:31:33;;;;;;;4.25;2.42;;;;;;;1.61;83.41;93463.19;4133974;28;20117;-84
2021/01/26 07:33:55;;;;;;;4.18;2.45;;;;;;;1.34;83.50;93481.88;4120723;28;20043;-84
2021/01/26 07:36:25;;;;;;;5.22;2.88;;;;;;;1.37;83.19;93471.28;4131038;28;20050;-72
2021/01/26 07:38:51;;;;;;;4.78;2.90;;;;;;;1.16;84.37;93481.72;4127107;28;20057;-72
2021/01/26 07:41:09;;;;;;;4.93;2.70;;;;;;;1.43;83.85;93483.66;4125822;28;20066;-73
2021/01/26 07:43:33;;;;;;;3.50;2.20;;;;;;;1.74;82.27;93493.88;4126829;28;20086;-71
2021/01/26 07:45:39;;;;;;;4.00;2.20;;;;;;;1.97;80.90;93493.59;4114233;28;20047;-71
2021/01/26 07:47:50;;;;;;;3.45;2.28;;;;;;;2.08;80.54;93500.41;4102735;28;20138;-74
2021/01/26 07:50:01;;;;;;;2.50;1.50;;;;;;;2.18;79.88;93506.38;4125137;28;20105;-73
2021/01/26 07:52:04;;;;;;;3.25;1.80;;;;;;;2.27;79.34;93515.06;4117831;28;20055;-72
2021/01/26 07:54:28;;;;;;;3.58;1.40;;;;;;;2.13;79.00;93524.03;4124941;28;20056;-72
2021/01/26 07:56:36;;;;;;;3.80;1.63;;;;;;;2.13;78.90;93524.03;4115107;28;20133;-72
2021/01/26 07:58:38;;;;;;;4.13;1.67;;;;;;;2.18;79.29;93534.81;4119540;28;20050;-72
2021/01/26 08:00:43;;;;;;;2.78;1.25;;;;;;;2.20;79.06;93541.47;4105613;28;20420;-71
2021/01/26 08:02:51;;;;;;;2.45;1.30;;;;;;;2.02;79.44;93538.75;4113243;28;20054;-72
2021/01/26 08:04:53;;;;;;;2.42;1.27;;;;;;;2.02;79.51;93549.09;4124085;28;20133;-71
2021/01/26 08:06:58;;;;;;;2.22;1.20;;;;;;;2.07;79.40;93560.78;4119399;28;20049;-71
2021/01/26 08:09:00;;;;;;;4.13;2.03;;;;;;;2.14;79.08;93567.03;4111533;28;20139;-73
2021/01/26 08:11:21;;;;;;;4.28;2.10;;;;;;;2.19;79.04;93575.97;4128533;28;20062;-72
2021/01/26 08:13:26;;;;;;;4.03;1.88;;;;;;;2.34;78.95;93578.97;4111713;28;20043;-72
2021/01/26 08:15:33;;;;;;;3.50;1.85;;;;;;;2.37;78.32;93567.56;4119407;28;20051;-71
2021/01/26 08:17:36;;;;;;;2.50;1.70;;;;;;;2.43;78.02;93578.16;4116327;28;20353;-73
2021/01/26 08:20:05;;;;;;;2.97;1.70;;;;;;;2.32;78.01;93575.72;4130735;28;20051;-90
2021/01/26 08:22:30;;;;;;;4.10;1.60;;;;;;;2.24;78.35;93588.53;4104993;28;20572;-86
2021/01/26 08:24:35;;;;;;;2.78;1.48;;;;;;;2.25;78.02;93588.34;4137934;28;20054;-86
2021/01/26 08:26:37;;;;;;;3.33;1.92;;;;;;;2.25;78.07;93595.31;4116485;28;20105;-73
2021/01/26 08:28:38;;;;;;;4.10;1.45;;;;;;;2.21;78.00;93599.91;4130828;28;20046;-72
2021/01/26 08:30:47;;;;;;;2.83;1.60;;;;;;;2.20;77.85;93603.47;4129113;28;20050;-71
2021/01/26 08:33:06;;;;;;;2.55;1.50;;;;;;;1.97;78.37;93594.34;4130828;28;20133;-71
2021/01/26 08:35:31;;;;;;;2.50;1.35;;;;;;;1.96;78.62;93597.88;4112392;28;20145;-72
2021/01/26 08:37:41;;;;;;;2.50;1.50;;;;;;;1.95;78.54;93602.22;4122279;28;20874;-72
2021/01/26 08:39:45;;;;;;;2.58;1.30;;;;;;;2.03;78.73;93607.53;4130340;28;20423;-74
2021/01/26 08:41:51;;;;;;;3.15;1.33;;;;;;;1.80;78.52;93608.72;4118155;28;20051;-73
2021/01/26 08:43:52;;;;;;;3.03;1.88;;;;;;;1.93;78.98;93609.28;4127085;28;20141;-73
2021/01/26 08:45:55;;;;;;;3.55;1.70;;;;;;;1.94;79.42;93612.69;4116048;28;20099;-71
2021/01/26 08:47:59;;;;;;;2.38;1.70;;;;;;;1.86;78.26;93604.78;4113255;28;20085;-70
2021/01/26 08:50:16;;;;;;;8.13;2.38;;;;;;;1.75;79.42;93618.63;4123010;28;20054;-70
2021/01/26 08:52:20;;;;;;;2.67;1.80;;;;;;;1.79;79.30;93617.44;4120909;28;20054;-72
2021/01/26 08:54:42;;;;;;;9.57;2.40;;;;;;;1.73;79.10;93620.53;4129907;28;20093;-70
2021/01/26 08:56:43;;;;;;;2.92;1.45;;;;;;;1.75;78.74;93618.63;4112746;28;20146;-71
2021/01/26 08:58:49;;;;;;;2.78;1.35;;;;;;;1.81;78.67;93620.69;4130978;28;20716;-71
2021/01/26 09:00:50;;;;;;;4.97;1.85;;;;;;;1.70;78.74;93621.63;4128431;28;20076;-71
2021/01/26 09:02:53;;;;;;;2.53;1.90;;;;;;;1.64;78.78;93614.41;4130679;28;20062;-71
2021/01/26 09:04:55;;;;;;;4.35;1.63;;;;;;;1.61;79.38;93602.56;4113356;28;20091;-72
2021/01/26 09:06:56;;;;;;;2.83;1.55;;;;;;;1.62;78.21;93603.38;4122080;28;20053;-73
2021/01/26 09:08:57;;;;;;;2.75;1.50;;;;;;;1.64;78.35;93611.81;4123671;28;20062;-73
2021/01/26 09:10:59;;;;;;;2.97;1.98;;;;;;;1.56;79.31;93609.88;4135171;28;20050;-84
2021/01/26 09:13:12;;;;;;;3.35;2.03;;;;;;;1.74;78.88;93604.06;4138429;28;20046;-85
2021/01/26 09:15:14;;;;;;;4.45;2.22;;;;;;;1.86;78.93;93600.44;4137752;28;20050;-84
2021/01/26 09:17:20;;;;;;;4.55;2.60;;;;;;;1.97;78.27;93618.41;4135802;28;20085;-85
2021/01/26 09:19:25;;;;;;;2.63;1.77;;;;;;;1.97;77.20;93623.56;4137942;28;20085;-86
2021/01/26 09:21:30;;;;;;;5.88;2.60;;;;;;;1.91;77.88;93628.44;4139631;28;20120;-85
2021/01/26 09:23:32;;;;;;;2.33;1.75;;;;;;;2.01;76.47;93624.94;4145080;28;20069;-87
2021/01/26 09:25:37;;;;;;;4.05;1.73;;;;;;;1.88;76.59;93637.28;4155999;28;20041;-85
2021/01/26 09:27:38;;;;;;;3.72;1.77;;;;;;;1.78;77.17;93639.00;4143823;28;20069;-86
2021/01/26 09:29:39;;;;;;;2.50;1.70;;;;;;;1.68;78.00;93633.00;4120550;28;20054;-72
2021/01/26 09:31:40;;;;;;;3.75;1.80;;;;;;;1.68;78.38;93639.00;4128069;28;20054;-72
2021/01/26 09:33:42;;;;;;;4.30;2.33;;;;;;;1.70;78.10;93639.69;4129774;28;20058;-72
2021/01/26 09:35:49;;;;;;;5.32;1.95;;;;;;;1.76;77.63;93633.97;4129590;28;20050;-74
2021/01/26 09:38:02;;;;;;;2.88;1.63;;;;;;;1.70;76.55;93636.28;4129577;28;20046;-74
2021/01/26 09:40:11;;;;;;;4.47;2.40;;;;;;;1.63;77.39;93641.16;4128661;28;20038;-76
2021/01/26 09:42:21;;;;;;;2.55;1.65;;;;;;;1.57;77.43;93646.81;4115253;28;20424;-75
2021/01/26 09:44:22;;;;;;;2.55;1.80;;;;;;;1.48;77.76;93632.13;4130322;28;20108;-73
2021/01/26 09:46:30;;;;;;;2.53;1.80;;;;;;;1.40;78.11;93646.50;4129020;28;20048;-72
2021/01/26 09:48:33;;;;;;;2.88;1.90;;;;;;;1.31;78.16;93651.63;4128712;28;20061;-74
2021/01/26 09:50:35;;;;;;;3.95;1.77;;;;;;;1.32;78.64;93654.06;4128815;28;20109;-72
2021/01/26 09:52:37;;;;;;;7.13;2.47;;;;;;;1.52;78.91;93644.63;4128124;28;20520;-73
2021/01/26 09:54:40;;;;;;;4.03;1.73;;;;;;;1.48;77.93;93663.09;4136144;28;20153;-86
2021/01/26 09:56:42;;;;;;;2.78;1.45;;;;;;;1.39;77.27;93651.78;4129371;28;20046;-73
2021/01/26 09:58:47;;;;;;;3.40;1.67;;;;;;;1.23;77.72;93660.81;4112441;28;20507;-71
2021/01/26 10:00:48;;;;;;;3.00;1.77;;;;;;;1.27;77.76;93655.41;4126263;28;20050;-72
2021/01/26 10:02:54;;;;;;;5.53;1.83;;;;;;;1.29;77.76;93649.19;4127184;28;20057;-73
2021/01/26 10:04:56;;;;;;;3.25;1.92;;;;;;;1.28;78.15;93644.94;4129323;28;20102;-71
2021/01/26 10:06:59;;;;;;;5.47;2.45;;;;;;;1.41;77.35;93648.13;4132071;28;20519;-86
2021/01/26 10:09:19;;;;;;;3.63;1.92;;;;;;;1.36;77.29;93654.66;4138812;28;20479;-87
2021/01/26 10:11:28;;;;;;;3.63;2.40;;;;;;;1.35;76.99;93651.22;4141731;28;20058;-87
2021/01/26 10:13:35;;;;;;;4.95;2.50;;;;;;;1.42;76.09;93633.47;4141744;28;20050;-90
2021/01/26 10:15:39;;;;;;;4.50;2.58;;;;;;;1.42;76.91;93638.66;4138864;28;20053;-86